Heafford Junction, Wisconsin
Current Conditions -  °F | °C
As of 12:15 PM on Wednesday 28 Jan 2015 (Local Time) from KTKV Reporting Station
Scattered Clouds Scattered Clouds  
Wind Chill: 21°   Ceiling: Unl
Heat Index: 28°   Visibility: 10mi
Dew Point: 21°   Wind: 7mph
Humidity: 75%   Direction: 160°SSE
Pressure: 30.01"   Gusts: NA
Location:  45.55°N, 89.72°W
Report Text: KTKV 281815Z AUTO 16006KT 10SM SCT013 M02/M06 A3001 RMK AO2 T10231061
Loading
Personal Weather Stations






























Interactive Weather Map New forecast layout! Learn more

10-Day Weather Forecast

Advertisements
Track Severe Weather on mobile